createdAt,value
2018-12-31T00:03:00.544Z,6.10
2018-12-31T00:06:02.421Z,5.63
2018-12-31T00:09:04.767Z,6.00
2018-12-31T00:12:06.613Z,5.43
2018-12-31T00:15:08.862Z,6.50
2018-12-31T00:18:10.781Z,5.53
2018-12-31T00:21:12.745Z,7.47
2018-12-31T00:24:14.652Z,5.47
2018-12-31T00:27:16.557Z,5.30
2018-12-31T00:30:18.444Z,5.87
2018-12-31T00:33:20.317Z,5.87
2018-12-31T00:36:22.266Z,5.77
2018-12-31T00:39:24.297Z,5.77
2018-12-31T00:42:26.252Z,5.10
2018-12-31T00:45:28.295Z,6.03
2018-12-31T00:48:30.138Z,5.10
2018-12-31T00:51:32.085Z,4.53
2018-12-31T00:54:33.962Z,4.87
2018-12-31T00:57:35.905Z,4.33
2018-12-31T01:00:38.061Z,3.97
2018-12-31T01:03:40.035Z,3.60
2018-12-31T01:06:41.914Z,5.00
2018-12-31T01:09:43.829Z,4.53
2018-12-31T01:12:45.714Z,4.60
2018-12-31T01:15:49.533Z,4.37
2018-12-31T01:18:51.448Z,3.43
2018-12-31T01:21:53.465Z,4.13
2018-12-31T01:24:55.339Z,3.83
2018-12-31T01:27:57.308Z,3.90
2018-12-31T01:30:59.205Z,4.13
2018-12-31T01:34:01.141Z,3.67
2018-12-31T01:37:03.019Z,4.93
2018-12-31T01:40:05.001Z,4.50
2018-12-31T01:43:06.905Z,3.90
2018-12-31T01:46:09.858Z,3.93
2018-12-31T01:49:11.790Z,4.03
2018-12-31T01:52:13.736Z,3.80
2018-12-31T01:55:15.640Z,4.70
2018-12-31T01:58:17.536Z,3.43
2018-12-31T02:01:19.428Z,2.90
2018-12-31T02:04:21.312Z,3.60
2018-12-31T02:07:23.160Z,3.67
2018-12-31T02:10:25.106Z,4.40
2018-12-31T02:13:27.063Z,4.00
2018-12-31T02:16:29.146Z,4.17
2018-12-31T02:19:31.014Z,3.00
2018-12-31T02:22:32.978Z,4.27
2018-12-31T02:25:34.876Z,4.30
2018-12-31T02:28:36.833Z,5.10
2018-12-31T02:31:38.727Z,4.70
2018-12-31T02:34:40.687Z,4.47
2018-12-31T02:37:42.542Z,4.17
2018-12-31T02:40:44.466Z,5.17
2018-12-31T02:43:46.363Z,5.10
2018-12-31T02:46:49.697Z,4.93
2018-12-31T02:49:51.579Z,4.90
2018-12-31T02:52:53.530Z,5.23
2018-12-31T02:55:55.484Z,4.27
2018-12-31T02:58:57.423Z,4.57
2018-12-31T03:01:59.274Z,4.70
2018-12-31T03:05:01.239Z,6.47
2018-12-31T03:08:03.151Z,4.90
2018-12-31T03:11:05.087Z,4.30
2018-12-31T03:14:07.000Z,4.13
2018-12-31T03:17:10.698Z,4.20
2018-12-31T03:20:12.609Z,3.53
2018-12-31T03:23:14.480Z,4.33
2018-12-31T03:26:16.445Z,4.23
2018-12-31T03:29:18.332Z,4.27
2018-12-31T03:32:20.240Z,4.30
2018-12-31T03:35:22.069Z,4.37
2018-12-31T03:38:24.080Z,4.17
2018-12-31T03:41:26.031Z,4.27
2018-12-31T03:44:27.932Z,4.23
2018-12-31T03:47:29.847Z,4.10
2018-12-31T03:50:31.795Z,4.03
2018-12-31T03:53:33.671Z,3.70
2018-12-31T03:56:35.539Z,3.60
2018-12-31T03:59:37.434Z,3.60
2018-12-31T04:02:39.371Z,4.30
2018-12-31T04:05:41.256Z,3.83
2018-12-31T04:08:43.161Z,3.33
2018-12-31T04:11:45.016Z,3.97
2018-12-31T04:14:47.143Z,4.00
2018-12-31T04:17:49.659Z,5.50
2018-12-31T04:20:51.617Z,4.77
2018-12-31T04:23:53.543Z,3.43
2018-12-31T04:26:55.493Z,4.63
2018-12-31T04:29:57.413Z,4.63
2018-12-31T04:32:59.343Z,4.13
2018-12-31T04:36:01.212Z,4.37
2018-12-31T04:39:05.861Z,3.97
2018-12-31T04:42:07.778Z,4.70
2018-12-31T04:45:09.672Z,4.93
2018-12-31T04:48:11.639Z,5.00
2018-12-31T04:51:13.516Z,5.23
2018-12-31T04:54:15.453Z,5.73
2018-12-31T04:57:17.327Z,5.87
2018-12-31T05:00:19.261Z,5.93
2018-12-31T05:03:21.129Z,5.57
2018-12-31T05:06:23.078Z,5.10
2018-12-31T05:09:25.049Z,5.90
2018-12-31T05:12:27.024Z,6.43
2018-12-31T05:15:28.995Z,6.20
2018-12-31T05:18:31.097Z,6.50
2018-12-31T05:21:33.021Z,5.57
2018-12-31T05:24:34.877Z,6.53
2018-12-31T05:27:36.793Z,6.53
2018-12-31T05:30:38.731Z,5.57
2018-12-31T05:33:40.643Z,6.17
2018-12-31T05:36:42.604Z,5.63
2018-12-31T05:39:44.583Z,6.27
2018-12-31T05:42:46.490Z,6.57
2018-12-31T05:45:48.471Z,5.17
2018-12-31T05:48:50.399Z,6.23
2018-12-31T05:51:52.290Z,6.03
2018-12-31T05:54:54.147Z,5.67
2018-12-31T05:57:56.072Z,6.17
2018-12-31T06:00:58.336Z,5.70
2018-12-31T06:04:00.271Z,6.60
2018-12-31T06:07:02.186Z,5.47
2018-12-31T06:10:04.652Z,6.07
2018-12-31T06:13:06.568Z,5.97
2018-12-31T06:16:08.424Z,5.67
2018-12-31T06:19:11.016Z,5.43
2018-12-31T06:22:12.902Z,6.67
2018-12-31T06:25:14.868Z,5.70
2018-12-31T06:28:16.784Z,4.80
2018-12-31T06:31:18.702Z,5.43
2018-12-31T06:34:20.584Z,5.70
2018-12-31T06:37:22.460Z,5.07
2018-12-31T06:40:24.349Z,5.13
2018-12-31T06:43:26.340Z,6.67
2018-12-31T06:46:28.258Z,5.67
2018-12-31T06:49:30.230Z,5.97
2018-12-31T06:52:32.114Z,5.70
2018-12-31T06:55:34.154Z,7.00
2018-12-31T06:58:36.058Z,6.47
2018-12-31T07:01:38.062Z,7.87
2018-12-31T07:04:39.950Z,7.63
2018-12-31T07:07:41.909Z,8.83
2018-12-31T07:10:43.833Z,7.73
2018-12-31T07:13:45.691Z,7.53
2018-12-31T07:16:47.573Z,7.73
2018-12-31T07:19:49.604Z,7.37
2018-12-31T07:22:53.224Z,8.03
2018-12-31T07:25:55.390Z,9.10
2018-12-31T07:28:57.343Z,7.90
2018-12-31T07:31:59.343Z,7.40
2018-12-31T07:35:02.409Z,6.57
2018-12-31T07:38:04.526Z,7.80
2018-12-31T07:41:06.510Z,6.43
2018-12-31T07:44:08.480Z,6.40
2018-12-31T07:47:10.320Z,6.57
2018-12-31T07:50:12.295Z,6.30
2018-12-31T07:53:14.221Z,5.70
2018-12-31T07:56:16.170Z,6.27
2018-12-31T07:59:18.090Z,6.40
2018-12-31T08:02:20.014Z,5.03
2018-12-31T08:05:21.968Z,5.53
2018-12-31T08:08:23.985Z,7.10
2018-12-31T08:11:25.891Z,6.17
2018-12-31T08:14:27.855Z,6.80
2018-12-31T08:17:29.711Z,5.80
2018-12-31T08:20:31.804Z,7.03
2018-12-31T08:23:33.807Z,6.13
2018-12-31T08:26:35.717Z,5.37
2018-12-31T08:29:37.652Z,5.63
2018-12-31T08:32:39.580Z,4.13
2018-12-31T08:35:41.489Z,6.03
2018-12-31T08:38:43.377Z,6.27
2018-12-31T08:41:45.334Z,6.80
2018-12-31T08:44:47.313Z,6.93
2018-12-31T08:47:49.284Z,8.10
2018-12-31T08:50:51.197Z,7.63
2018-12-31T08:53:53.238Z,5.97
2018-12-31T08:56:55.156Z,7.13
2018-12-31T08:59:57.099Z,12.43
2018-12-31T09:02:58.990Z,10.30
2018-12-31T09:06:00.911Z,11.17
2018-12-31T09:09:05.020Z,18.07
2018-12-31T09:12:06.979Z,12.20
2018-12-31T09:15:08.930Z,16.73
2018-12-31T09:18:10.925Z,61.37
2018-12-31T09:21:12.936Z,63.30
2018-12-31T09:24:14.809Z,75.63
2018-12-31T09:27:16.757Z,154.37
2018-12-31T09:30:18.625Z,118.33
2018-12-31T09:33:20.553Z,34.13
2018-12-31T09:36:22.497Z,73.03
2018-12-31T09:39:24.508Z,56.90
2018-12-31T09:42:26.404Z,18.30
2018-12-31T09:45:28.396Z,14.70
2018-12-31T09:48:30.331Z,23.70
2018-12-31T09:51:32.340Z,19.40
2018-12-31T09:54:34.265Z,13.90
2018-12-31T09:57:36.150Z,52.30
2018-12-31T10:00:38.075Z,23.10
2018-12-31T10:03:40.022Z,18.63
2018-12-31T10:06:41.985Z,107.47
2018-12-31T10:09:43.915Z,10.23
2018-12-31T10:12:45.765Z,9.30
2018-12-31T10:15:47.785Z,8.67
2018-12-31T10:18:49.706Z,7.97
2018-12-31T10:21:51.842Z,9.20
2018-12-31T10:24:53.884Z,11.37
2018-12-31T10:27:55.781Z,10.60
2018-12-31T10:30:57.797Z,8.60
2018-12-31T10:33:59.808Z,8.77
2018-12-31T10:37:01.759Z,9.03
2018-12-31T10:40:06.892Z,9.80
2018-12-31T10:43:08.767Z,9.73
2018-12-31T10:46:10.855Z,10.67
2018-12-31T10:49:13.738Z,10.53
2018-12-31T10:52:15.695Z,10.93
2018-12-31T10:55:17.563Z,10.60
2018-12-31T10:58:19.674Z,10.53
2018-12-31T11:01:21.561Z,9.57
2018-12-31T11:04:23.584Z,10.93
2018-12-31T11:07:25.508Z,11.90
2018-12-31T11:10:27.458Z,10.17
2018-12-31T11:13:29.381Z,10.00
2018-12-31T11:16:31.300Z,8.57
2018-12-31T11:19:34.257Z,10.63
2018-12-31T11:22:36.335Z,12.60
2018-12-31T11:25:39.807Z,13.10
2018-12-31T11:28:41.757Z,10.73
2018-12-31T11:31:43.724Z,11.83
2018-12-31T11:34:45.637Z,13.37
2018-12-31T11:37:47.831Z,15.53
2018-12-31T11:40:49.707Z,18.37
2018-12-31T11:43:51.595Z,22.93
2018-12-31T11:46:53.462Z,14.10
2018-12-31T11:49:55.426Z,12.23
2018-12-31T11:52:57.465Z,13.20
2018-12-31T11:55:59.397Z,13.77
2018-12-31T11:59:01.298Z,10.47
2018-12-31T12:02:03.193Z,11.17
2018-12-31T12:05:05.070Z,13.20
2018-12-31T12:12:01.282Z,27.07
2018-12-31T12:15:04.827Z,65.20
2018-12-31T12:18:06.757Z,29.30
2018-12-31T12:21:08.633Z,74.30
2018-12-31T12:24:15.581Z,112.37
2018-12-31T12:27:17.480Z,51.73
2018-12-31T12:30:19.376Z,41.10
2018-12-31T12:33:21.246Z,35.03
2018-12-31T12:36:36.574Z,56.90
2018-12-31T12:39:38.430Z,35.17
2018-12-31T12:42:40.374Z,22.33
2018-12-31T12:45:42.299Z,22.50
2018-12-31T12:48:44.267Z,18.90
2018-12-31T12:51:46.146Z,47.40
2018-12-31T12:54:48.079Z,75.37
2018-12-31T12:57:50.005Z,53.33
2018-12-31T13:00:51.874Z,37.57
2018-12-31T13:03:55.110Z,36.23
2018-12-31T13:06:57.319Z,29.20
2018-12-31T13:09:59.283Z,26.73
2018-12-31T13:13:01.234Z,31.90
2018-12-31T13:16:03.793Z,21.90
2018-12-31T13:19:05.724Z,17.93
2018-12-31T13:22:07.637Z,18.77
2018-12-31T13:25:09.768Z,17.27
2018-12-31T13:28:11.700Z,18.60
2018-12-31T13:31:13.802Z,19.27
2018-12-31T13:34:15.921Z,19.00
2018-12-31T13:37:17.796Z,15.80
2018-12-31T13:40:19.758Z,15.77
2018-12-31T13:43:21.662Z,16.77
2018-12-31T13:46:23.781Z,17.13
2018-12-31T13:49:25.717Z,13.03
2018-12-31T13:52:27.730Z,15.63
2018-12-31T13:55:29.658Z,17.47
2018-12-31T13:58:31.613Z,14.20
2018-12-31T14:01:33.785Z,14.73
2018-12-31T14:04:36.376Z,16.33
2018-12-31T14:07:38.278Z,15.97
2018-12-31T14:10:40.185Z,17.47
2018-12-31T14:13:42.090Z,23.67
2018-12-31T14:16:44.063Z,17.23
2018-12-31T14:19:45.962Z,15.97
2018-12-31T14:22:47.979Z,37.10
2018-12-31T14:25:50.005Z,34.30
2018-12-31T14:28:51.911Z,30.87
2018-12-31T14:31:53.826Z,26.63
2018-12-31T14:34:55.782Z,39.03
2018-12-31T14:37:57.689Z,25.60
2018-12-31T14:40:59.637Z,20.67
2018-12-31T14:44:02.116Z,12.50
2018-12-31T14:47:04.202Z,11.63
2018-12-31T14:50:06.466Z,22.77
2018-12-31T14:53:08.502Z,20.67
2018-12-31T14:56:10.421Z,40.27
2018-12-31T14:59:12.376Z,46.63
2018-12-31T15:02:14.313Z,17.30
2018-12-31T15:05:16.226Z,14.63
2018-12-31T15:08:18.090Z,12.27
2018-12-31T15:11:20.061Z,12.60
2018-12-31T15:14:22.048Z,17.97
2018-12-31T15:17:23.954Z,19.73
2018-12-31T15:20:25.840Z,11.23
2018-12-31T15:23:27.870Z,32.47
2018-12-31T15:26:29.916Z,43.47
2018-12-31T15:29:31.854Z,24.13
2018-12-31T15:32:34.328Z,10.60
2018-12-31T15:35:38.157Z,14.93
2018-12-31T15:38:40.073Z,15.93
2018-12-31T15:41:41.993Z,15.67
2018-12-31T15:44:43.889Z,12.17
2018-12-31T15:47:45.875Z,16.63
2018-12-31T15:50:48.100Z,14.63
2018-12-31T15:53:49.995Z,16.37
2018-12-31T15:56:51.921Z,16.23
2018-12-31T15:59:53.894Z,17.50
2018-12-31T16:02:55.821Z,40.93
2018-12-31T16:05:57.738Z,63.33
2018-12-31T16:08:59.594Z,60.77
2018-12-31T16:12:01.539Z,53.57
2018-12-31T16:15:04.987Z,48.23
2018-12-31T16:18:06.882Z,38.87
2018-12-31T16:21:09.464Z,43.80
2018-12-31T16:24:11.371Z,39.10
2018-12-31T16:27:13.405Z,46.93
2018-12-31T16:30:15.629Z,47.37
2018-12-31T16:33:17.556Z,31.00
2018-12-31T16:36:19.837Z,21.80
2018-12-31T16:39:21.735Z,33.83
2018-12-31T16:42:23.653Z,23.73
2018-12-31T16:45:25.633Z,21.60
2018-12-31T16:48:27.504Z,22.53
2018-12-31T16:51:29.434Z,16.87
2018-12-31T16:54:31.529Z,16.63
2018-12-31T16:57:33.600Z,17.60
2018-12-31T17:00:35.673Z,16.30
2018-12-31T17:03:37.730Z,18.83
2018-12-31T17:06:39.684Z,19.83
2018-12-31T17:09:41.676Z,20.57
2018-12-31T17:12:43.583Z,19.70
2018-12-31T17:15:45.572Z,23.70
2018-12-31T17:18:47.496Z,24.70
2018-12-31T17:21:49.431Z,28.47
2018-12-31T17:24:51.319Z,34.37
2018-12-31T17:27:53.850Z,30.80
2018-12-31T17:30:55.737Z,31.23
2018-12-31T17:33:57.677Z,32.13
2018-12-31T17:37:00.869Z,32.37
2018-12-31T17:40:03.270Z,33.67
2018-12-31T17:43:05.210Z,38.57
2018-12-31T17:46:07.173Z,40.37
2018-12-31T17:49:09.108Z,48.03
2018-12-31T17:52:11.095Z,52.30
2018-12-31T17:55:12.986Z,53.00
2018-12-31T17:58:14.991Z,54.13
2018-12-31T18:01:16.958Z,51.50
2018-12-31T18:04:18.926Z,55.27
2018-12-31T18:07:20.848Z,58.67
2018-12-31T18:10:22.808Z,52.37
2018-12-31T18:13:24.725Z,39.43
2018-12-31T18:16:26.656Z,38.07
2018-12-31T18:19:28.590Z,40.33
2018-12-31T18:22:30.527Z,48.97
2018-12-31T18:25:32.720Z,48.97
2018-12-31T18:28:34.894Z,41.93
2018-12-31T18:31:36.831Z,41.67
2018-12-31T18:34:38.962Z,43.03
2018-12-31T18:37:41.962Z,46.97
2018-12-31T18:40:44.194Z,55.63
2018-12-31T18:43:46.105Z,55.70
2018-12-31T18:46:48.101Z,52.03
2018-12-31T18:49:50.032Z,50.67
2018-12-31T18:52:51.909Z,54.10
2018-12-31T18:55:53.782Z,54.17
2018-12-31T18:58:55.772Z,52.43
2018-12-31T19:01:57.670Z,48.23
2018-12-31T19:04:59.589Z,49.50
2018-12-31T19:08:01.525Z,49.90
2018-12-31T19:15:13.016Z,52.33
2018-12-31T19:18:14.918Z,52.97
2018-12-31T19:21:16.893Z,57.37
2018-12-31T19:24:18.851Z,57.47
2018-12-31T19:27:20.863Z,62.20
2018-12-31T19:30:22.894Z,61.97
2018-12-31T19:33:24.833Z,63.43
2018-12-31T19:36:26.666Z,66.00
2018-12-31T19:39:28.606Z,62.83
2018-12-31T19:42:30.825Z,63.43
2018-12-31T19:45:32.806Z,61.57
2018-12-31T19:48:34.700Z,63.40
2018-12-31T19:51:36.853Z,61.23
2018-12-31T19:54:38.736Z,63.37
2018-12-31T19:57:40.707Z,58.03
2018-12-31T20:00:42.794Z,57.20
2018-12-31T20:03:44.800Z,54.23
2018-12-31T20:06:46.710Z,54.07
2018-12-31T20:09:48.590Z,52.37
2018-12-31T20:12:50.505Z,55.53
2018-12-31T20:15:52.371Z,52.40
2018-12-31T20:18:54.285Z,51.07
2018-12-31T20:21:56.193Z,55.67
2018-12-31T20:24:58.066Z,52.37
2018-12-31T20:27:59.961Z,52.30
2018-12-31T20:31:02.009Z,51.23
2018-12-31T20:34:03.891Z,52.67
2018-12-31T20:37:05.755Z,52.30
2018-12-31T20:40:07.675Z,47.77
2018-12-31T20:43:10.586Z,46.87
2018-12-31T20:46:12.546Z,50.03
2018-12-31T20:49:14.471Z,50.07
2018-12-31T20:52:16.407Z,48.27
2018-12-31T20:55:18.326Z,48.63
2018-12-31T20:58:20.230Z,46.00
2018-12-31T21:01:22.147Z,48.20
2018-12-31T21:04:25.915Z,51.83
2018-12-31T21:07:27.992Z,50.00
2018-12-31T21:10:30.077Z,50.03
2018-12-31T21:13:32.031Z,52.80
2018-12-31T21:16:33.954Z,50.50
2018-12-31T21:19:35.842Z,54.47
2018-12-31T21:22:37.821Z,48.97
2018-12-31T21:25:42.496Z,50.67
2018-12-31T21:28:44.467Z,47.87
2018-12-31T21:31:46.723Z,46.50
2018-12-31T21:34:49.217Z,46.50
2018-12-31T21:37:51.146Z,46.63
2018-12-31T21:40:53.099Z,50.83
2018-12-31T21:43:55.702Z,52.93
2018-12-31T21:46:57.623Z,53.77
2018-12-31T21:49:59.519Z,52.77
2018-12-31T21:53:01.823Z,57.20
2018-12-31T21:56:03.763Z,54.70
2018-12-31T21:59:05.743Z,55.60
2018-12-31T22:02:07.769Z,51.17
2018-12-31T22:05:09.753Z,51.47
2018-12-31T22:08:11.654Z,52.03
2018-12-31T22:11:13.679Z,53.23
2018-12-31T22:14:15.563Z,52.37
2018-12-31T22:17:17.544Z,50.90
2018-12-31T22:20:19.457Z,48.07
2018-12-31T22:23:21.343Z,50.03
2018-12-31T22:26:23.232Z,49.90
2018-12-31T22:29:25.227Z,47.83
2018-12-31T22:32:27.259Z,43.67
2018-12-31T22:35:29.220Z,45.53
2018-12-31T22:38:31.143Z,45.87
2018-12-31T22:41:33.102Z,44.53
2018-12-31T22:44:35.085Z,42.50
2018-12-31T22:47:38.017Z,41.50
2018-12-31T22:50:39.963Z,44.60
2018-12-31T22:53:42.229Z,44.57
2018-12-31T22:56:44.139Z,42.40
2018-12-31T22:59:46.826Z,43.13
2018-12-31T23:02:48.762Z,44.27
2018-12-31T23:05:50.697Z,43.13
2018-12-31T23:08:52.818Z,44.40
2018-12-31T23:11:54.746Z,41.43
2018-12-31T23:14:56.635Z,42.43
2018-12-31T23:17:58.536Z,41.33
2018-12-31T23:21:00.519Z,43.50
2018-12-31T23:24:02.511Z,51.40
2018-12-31T23:27:04.388Z,48.40
2018-12-31T23:30:08.451Z,52.40
2018-12-31T23:33:10.453Z,56.77
2018-12-31T23:36:12.496Z,56.97
2018-12-31T23:39:14.507Z,51.03
2018-12-31T23:42:16.479Z,60.27
2018-12-31T23:45:18.416Z,74.30
2018-12-31T23:48:20.361Z,73.57
2018-12-31T23:51:22.288Z,58.07
2018-12-31T23:54:24.218Z,52.67
2018-12-31T23:57:26.221Z,45.27
